sensor_id;sensor_type;location;lat;lon;timestamp;P1;durP1;ratioP1;P2;durP2;ratioP2
65405;SDS011;52016;51.228;-2.322;2023-02-04T00:01:46;2.03;;;0.95;;
65405;SDS011;52016;51.228;-2.322;2023-02-04T00:05:28;4.90;;;1.33;;
65405;SDS011;52016;51.228;-2.322;2023-02-04T00:09:10;4.57;;;1.25;;
65405;SDS011;52016;51.228;-2.322;2023-02-04T00:12:52;2.95;;;1.05;;
65405;SDS011;52016;51.228;-2.322;2023-02-04T00:16:34;3.72;;;1.13;;
65405;SDS011;52016;51.228;-2.322;2023-02-04T00:20:16;4.40;;;1.20;;
65405;SDS011;52016;51.228;-2.322;2023-02-04T00:23:59;4.93;;;1.23;;
65405;SDS011;52016;51.228;-2.322;2023-02-04T00:27:42;7.22;;;1.40;;
65405;SDS011;52016;51.228;-2.322;2023-02-04T00:31:24;3.08;;;1.27;;
65405;SDS011;52016;51.228;-2.322;2023-02-04T00:35:06;6.85;;;1.23;;
65405;SDS011;52016;51.228;-2.322;2023-02-04T00:38:48;3.67;;;1.10;;
65405;SDS011;52016;51.228;-2.322;2023-02-04T00:42:30;6.70;;;1.52;;
65405;SDS011;52016;51.228;-2.322;2023-02-04T00:46:13;3.03;;;1.13;;
65405;SDS011;52016;51.228;-2.322;2023-02-04T00:49:55;3.45;;;1.30;;
65405;SDS011;52016;51.228;-2.322;2023-02-04T00:53:37;4.78;;;1.25;;
65405;SDS011;52016;51.228;-2.322;2023-02-04T00:57:19;2.03;;;0.82;;
65405;SDS011;52016;51.228;-2.322;2023-02-04T01:01:02;3.00;;;1.00;;
65405;SDS011;52016;51.228;-2.322;2023-02-04T01:04:44;3.78;;;1.00;;
65405;SDS011;52016;51.228;-2.322;2023-02-04T01:08:26;3.20;;;1.20;;
65405;SDS011;52016;51.228;-2.322;2023-02-04T01:12:08;3.75;;;1.00;;
65405;SDS011;52016;51.228;-2.322;2023-02-04T01:15:50;5.05;;;1.88;;
65405;SDS011;52016;51.228;-2.322;2023-02-04T01:19:32;8.13;;;1.73;;
65405;SDS011;52016;51.228;-2.322;2023-02-04T01:23:14;6.70;;;1.70;;
65405;SDS011;52016;51.228;-2.322;2023-02-04T01:26:56;9.13;;;2.75;;
65405;SDS011;52016;51.228;-2.322;2023-02-04T01:30:38;6.88;;;2.92;;
65405;SDS011;52016;51.228;-2.322;2023-02-04T01:34:20;5.22;;;1.40;;
65405;SDS011;52016;51.228;-2.322;2023-02-04T01:38:02;5.57;;;1.45;;
65405;SDS011;52016;51.228;-2.322;2023-02-04T01:41:44;5.55;;;1.20;;
65405;SDS011;52016;51.228;-2.322;2023-02-04T01:45:26;5.05;;;1.30;;
65405;SDS011;52016;51.228;-2.322;2023-02-04T01:49:11;9.18;;;1.50;;
65405;SDS011;52016;51.228;-2.322;2023-02-04T01:52:53;3.28;;;1.40;;
65405;SDS011;52016;51.228;-2.322;2023-02-04T01:56:35;4.35;;;1.55;;
65405;SDS011;52016;51.228;-2.322;2023-02-04T02:00:27;5.75;;;1.52;;
65405;SDS011;52016;51.228;-2.322;2023-02-04T02:04:14;5.68;;;1.65;;
65405;SDS011;52016;51.228;-2.322;2023-02-04T02:07:59;6.38;;;1.90;;
65405;SDS011;52016;51.228;-2.322;2023-02-04T02:11:42;6.85;;;1.42;;
65405;SDS011;52016;51.228;-2.322;2023-02-04T02:15:24;3.67;;;1.20;;
65405;SDS011;52016;51.228;-2.322;2023-02-04T02:19:08;3.33;;;1.30;;
65405;SDS011;52016;51.228;-2.322;2023-02-04T02:27:06;4.35;;;1.50;;
65405;SDS011;52016;51.228;-2.322;2023-02-04T02:30:51;5.63;;;1.55;;
65405;SDS011;52016;51.228;-2.322;2023-02-04T02:34:33;4.55;;;1.30;;
65405;SDS011;52016;51.228;-2.322;2023-02-04T02:38:17;4.25;;;1.65;;
65405;SDS011;52016;51.228;-2.322;2023-02-04T02:42:00;8.52;;;1.50;;
65405;SDS011;52016;51.228;-2.322;2023-02-04T02:45:42;2.97;;;1.45;;
65405;SDS011;52016;51.228;-2.322;2023-02-04T02:49:25;2.50;;;1.42;;
65405;SDS011;52016;51.228;-2.322;2023-02-04T02:53:13;8.98;;;1.55;;
65405;SDS011;52016;51.228;-2.322;2023-02-04T02:56:57;3.25;;;1.23;;
65405;SDS011;52016;51.228;-2.322;2023-02-04T03:00:39;3.00;;;0.98;;
65405;SDS011;52016;51.228;-2.322;2023-02-04T03:04:21;3.08;;;1.02;;
65405;SDS011;52016;51.228;-2.322;2023-02-04T03:08:05;3.90;;;1.05;;
65405;SDS011;52016;51.228;-2.322;2023-02-04T03:11:49;3.42;;;1.10;;
65405;SDS011;52016;51.228;-2.322;2023-02-04T03:15:31;5.47;;;1.83;;
65405;SDS011;52016;51.228;-2.322;2023-02-04T03:19:14;4.45;;;1.40;;
65405;SDS011;52016;51.228;-2.322;2023-02-04T03:22:56;6.28;;;1.35;;
65405;SDS011;52016;51.228;-2.322;2023-02-04T03:26:39;5.72;;;1.70;;
65405;SDS011;52016;51.228;-2.322;2023-02-04T03:30:22;5.68;;;1.48;;
65405;SDS011;52016;51.228;-2.322;2023-02-04T03:34:05;2.25;;;1.40;;
65405;SDS011;52016;51.228;-2.322;2023-02-04T03:37:47;8.73;;;1.42;;
65405;SDS011;52016;51.228;-2.322;2023-02-04T03:41:29;4.10;;;1.55;;
65405;SDS011;52016;51.228;-2.322;2023-02-04T03:45:12;2.10;;;1.15;;
65405;SDS011;52016;51.228;-2.322;2023-02-04T03:48:54;5.45;;;1.30;;
65405;SDS011;52016;51.228;-2.322;2023-02-04T03:52:36;9.65;;;1.63;;
65405;SDS011;52016;51.228;-2.322;2023-02-04T03:56:18;3.15;;;1.33;;
65405;SDS011;52016;51.228;-2.322;2023-02-04T04:00:00;3.83;;;1.30;;
65405;SDS011;52016;51.228;-2.322;2023-02-04T04:03:42;6.88;;;1.40;;
65405;SDS011;52016;51.228;-2.322;2023-02-04T04:07:24;3.30;;;1.60;;
65405;SDS011;52016;51.228;-2.322;2023-02-04T04:11:06;4.13;;;1.30;;
65405;SDS011;52016;51.228;-2.322;2023-02-04T04:14:48;4.45;;;1.50;;
65405;SDS011;52016;51.228;-2.322;2023-02-04T04:18:33;3.53;;;1.73;;
65405;SDS011;52016;51.228;-2.322;2023-02-04T04:22:15;8.02;;;1.95;;
65405;SDS011;52016;51.228;-2.322;2023-02-04T04:25:57;5.20;;;1.60;;
65405;SDS011;52016;51.228;-2.322;2023-02-04T04:29:39;3.83;;;1.50;;
65405;SDS011;52016;51.228;-2.322;2023-02-04T04:33:21;5.78;;;1.77;;
65405;SDS011;52016;51.228;-2.322;2023-02-04T04:37:03;3.17;;;1.60;;
65405;SDS011;52016;51.228;-2.322;2023-02-04T04:40:45;5.10;;;2.00;;
65405;SDS011;52016;51.228;-2.322;2023-02-04T04:44:27;4.57;;;1.90;;
65405;SDS011;52016;51.228;-2.322;2023-02-04T04:48:09;5.32;;;1.88;;
65405;SDS011;52016;51.228;-2.322;2023-02-04T04:51:51;4.82;;;1.73;;
65405;SDS011;52016;51.228;-2.322;2023-02-04T04:55:33;2.33;;;1.70;;
65405;SDS011;52016;51.228;-2.322;2023-02-04T04:59:14;6.32;;;2.22;;
65405;SDS011;52016;51.228;-2.322;2023-02-04T05:02:56;3.42;;;1.77;;
65405;SDS011;52016;51.228;-2.322;2023-02-04T05:06:38;3.60;;;1.95;;
65405;SDS011;52016;51.228;-2.322;2023-02-04T05:10:20;4.55;;;2.20;;
65405;SDS011;52016;51.228;-2.322;2023-02-04T05:14:02;8.68;;;2.25;;
65405;SDS011;52016;51.228;-2.322;2023-02-04T05:17:44;5.47;;;1.63;;
65405;SDS011;52016;51.228;-2.322;2023-02-04T05:21:26;3.83;;;1.90;;
65405;SDS011;52016;51.228;-2.322;2023-02-04T05:25:08;7.20;;;2.05;;
65405;SDS011;52016;51.228;-2.322;2023-02-04T05:28:51;7.75;;;2.33;;
65405;SDS011;52016;51.228;-2.322;2023-02-04T05:32:33;4.97;;;1.80;;
65405;SDS011;52016;51.228;-2.322;2023-02-04T05:36:15;4.13;;;1.90;;
65405;SDS011;52016;51.228;-2.322;2023-02-04T05:39:58;3.65;;;1.85;;
65405;SDS011;52016;51.228;-2.322;2023-02-04T05:43:40;4.00;;;2.00;;
65405;SDS011;52016;51.228;-2.322;2023-02-04T05:47:23;6.15;;;2.08;;
65405;SDS011;52016;51.228;-2.322;2023-02-04T05:51:05;3.63;;;1.98;;
65405;SDS011;52016;51.228;-2.322;2023-02-04T05:54:47;3.80;;;1.77;;
65405;SDS011;52016;51.228;-2.322;2023-02-04T05:58:29;5.85;;;1.98;;
65405;SDS011;52016;51.228;-2.322;2023-02-04T06:02:13;5.07;;;1.67;;
65405;SDS011;52016;51.228;-2.322;2023-02-04T06:05:55;9.88;;;1.83;;
65405;SDS011;52016;51.228;-2.322;2023-02-04T06:09:37;6.07;;;1.80;;
65405;SDS011;52016;51.228;-2.322;2023-02-04T06:13:19;7.30;;;1.70;;
65405;SDS011;52016;51.228;-2.322;2023-02-04T06:17:01;3.55;;;1.70;;
65405;SDS011;52016;51.228;-2.322;2023-02-04T06:20:43;9.48;;;1.67;;
65405;SDS011;52016;51.228;-2.322;2023-02-04T06:24:25;9.35;;;1.58;;
65405;SDS011;52016;51.228;-2.322;2023-02-04T06:28:07;4.57;;;1.42;;
65405;SDS011;52016;51.228;-2.322;2023-02-04T06:31:49;4.07;;;1.50;;
65405;SDS011;52016;51.228;-2.322;2023-02-04T06:35:31;3.95;;;1.50;;
65405;SDS011;52016;51.228;-2.322;2023-02-04T06:39:13;3.75;;;1.60;;
65405;SDS011;52016;51.228;-2.322;2023-02-04T06:42:55;7.93;;;1.48;;
65405;SDS011;52016;51.228;-2.322;2023-02-04T06:46:37;4.70;;;1.40;;
65405;SDS011;52016;51.228;-2.322;2023-02-04T06:50:19;8.25;;;1.20;;
65405;SDS011;52016;51.228;-2.322;2023-02-04T06:54:01;9.40;;;1.33;;
65405;SDS011;52016;51.228;-2.322;2023-02-04T06:57:43;4.93;;;1.45;;
65405;SDS011;52016;51.228;-2.322;2023-02-04T07:01:25;8.57;;;1.35;;
65405;SDS011;52016;51.228;-2.322;2023-02-04T07:05:07;5.63;;;1.40;;
65405;SDS011;52016;51.228;-2.322;2023-02-04T07:08:49;4.35;;;1.35;;
65405;SDS011;52016;51.228;-2.322;2023-02-04T07:12:31;4.13;;;1.23;;
65405;SDS011;52016;51.228;-2.322;2023-02-04T07:16:13;5.57;;;1.42;;
65405;SDS011;52016;51.228;-2.322;2023-02-04T07:19:55;7.32;;;1.40;;
65405;SDS011;52016;51.228;-2.322;2023-02-04T07:23:37;7.70;;;2.08;;
65405;SDS011;52016;51.228;-2.322;2023-02-04T07:27:19;10.80;;;2.67;;
65405;SDS011;52016;51.228;-2.322;2023-02-04T07:31:01;5.55;;;1.35;;
65405;SDS011;52016;51.228;-2.322;2023-02-04T07:34:43;4.75;;;1.20;;
65405;SDS011;52016;51.228;-2.322;2023-02-04T07:38:25;4.03;;;1.50;;
65405;SDS011;52016;51.228;-2.322;2023-02-04T07:42:07;4.60;;;1.25;;
65405;SDS011;52016;51.228;-2.322;2023-02-04T07:45:49;6.18;;;1.30;;
65405;SDS011;52016;51.228;-2.322;2023-02-04T07:49:31;11.23;;;1.70;;
65405;SDS011;52016;51.228;-2.322;2023-02-04T07:53:13;6.85;;;1.50;;
65405;SDS011;52016;51.228;-2.322;2023-02-04T07:56:55;4.63;;;1.42;;
65405;SDS011;52016;51.228;-2.322;2023-02-04T08:00:37;5.70;;;1.70;;
65405;SDS011;52016;51.228;-2.322;2023-02-04T08:04:18;12.75;;;1.80;;
65405;SDS011;52016;51.228;-2.322;2023-02-04T08:08:00;7.68;;;1.55;;
65405;SDS011;52016;51.228;-2.322;2023-02-04T08:11:43;12.88;;;1.70;;
65405;SDS011;52016;51.228;-2.322;2023-02-04T08:15:25;14.07;;;1.58;;
65405;SDS011;52016;51.228;-2.322;2023-02-04T08:19:07;15.00;;;2.20;;
65405;SDS011;52016;51.228;-2.322;2023-02-04T08:22:49;18.13;;;2.15;;
65405;SDS011;52016;51.228;-2.322;2023-02-04T08:26:31;23.42;;;2.40;;
65405;SDS011;52016;51.228;-2.322;2023-02-04T08:30:13;23.63;;;2.25;;
65405;SDS011;52016;51.228;-2.322;2023-02-04T08:33:55;20.70;;;2.53;;
65405;SDS011;52016;51.228;-2.322;2023-02-04T08:37:37;15.35;;;2.13;;
65405;SDS011;52016;51.228;-2.322;2023-02-04T08:41:18;12.40;;;2.47;;
65405;SDS011;52016;51.228;-2.322;2023-02-04T08:45:00;9.40;;;2.10;;
65405;SDS011;52016;51.228;-2.322;2023-02-04T08:48:42;5.97;;;2.33;;
65405;SDS011;52016;51.228;-2.322;2023-02-04T08:52:24;8.88;;;2.20;;
65405;SDS011;52016;51.228;-2.322;2023-02-04T08:56:06;5.90;;;2.00;;
65405;SDS011;52016;51.228;-2.322;2023-02-04T08:59:50;4.97;;;1.70;;
65405;SDS011;52016;51.228;-2.322;2023-02-04T09:03:32;4.13;;;1.90;;
65405;SDS011;52016;51.228;-2.322;2023-02-04T09:07:14;6.15;;;2.28;;
65405;SDS011;52016;51.228;-2.322;2023-02-04T09:10:56;5.68;;;1.83;;
65405;SDS011;52016;51.228;-2.322;2023-02-04T09:14:38;5.88;;;1.90;;
65405;SDS011;52016;51.228;-2.322;2023-02-04T09:18:20;8.15;;;2.30;;
65405;SDS011;52016;51.228;-2.322;2023-02-04T09:22:02;4.50;;;1.70;;
65405;SDS011;52016;51.228;-2.322;2023-02-04T09:25:44;6.72;;;1.90;;
65405;SDS011;52016;51.228;-2.322;2023-02-04T09:29:26;6.47;;;1.90;;
65405;SDS011;52016;51.228;-2.322;2023-02-04T09:33:09;6.72;;;1.90;;
65405;SDS011;52016;51.228;-2.322;2023-02-04T09:36:52;6.47;;;2.08;;
65405;SDS011;52016;51.228;-2.322;2023-02-04T09:40:35;4.68;;;2.10;;
65405;SDS011;52016;51.228;-2.322;2023-02-04T09:44:23;8.18;;;2.58;;
65405;SDS011;52016;51.228;-2.322;2023-02-04T09:48:08;7.20;;;2.90;;
65405;SDS011;52016;51.228;-2.322;2023-02-04T09:51:53;7.30;;;2.10;;
65405;SDS011;52016;51.228;-2.322;2023-02-04T09:55:39;6.80;;;2.35;;
65405;SDS011;52016;51.228;-2.322;2023-02-04T09:59:25;7.82;;;2.35;;
65405;SDS011;52016;51.228;-2.322;2023-02-04T10:03:12;6.35;;;1.80;;
65405;SDS011;52016;51.228;-2.322;2023-02-04T10:06:59;5.50;;;2.40;;
65405;SDS011;52016;51.228;-2.322;2023-02-04T10:10:42;9.30;;;2.10;;
65405;SDS011;52016;51.228;-2.322;2023-02-04T10:14:26;5.43;;;2.38;;
65405;SDS011;52016;51.228;-2.322;2023-02-04T10:18:08;15.20;;;2.58;;
65405;SDS011;52016;51.228;-2.322;2023-02-04T10:21:52;7.50;;;2.60;;
65405;SDS011;52016;51.228;-2.322;2023-02-04T10:25:35;12.07;;;3.00;;
65405;SDS011;52016;51.228;-2.322;2023-02-04T10:41:01;7.55;;;2.17;;
65405;SDS011;52016;51.228;-2.322;2023-02-04T10:44:45;6.45;;;1.88;;
65405;SDS011;52016;51.228;-2.322;2023-02-04T10:48:28;4.95;;;2.13;;
65405;SDS011;52016;51.228;-2.322;2023-02-04T10:52:12;7.82;;;2.33;;
65405;SDS011;52016;51.228;-2.322;2023-02-04T10:55:57;6.95;;;2.38;;
65405;SDS011;52016;51.228;-2.322;2023-02-04T10:59:39;12.40;;;2.58;;
65405;SDS011;52016;51.228;-2.322;2023-02-04T11:03:25;6.38;;;1.98;;
65405;SDS011;52016;51.228;-2.322;2023-02-04T11:07:11;5.40;;;1.75;;
65405;SDS011;52016;51.228;-2.322;2023-02-04T11:14:53;9.10;;;2.08;;
65405;SDS011;52016;51.228;-2.322;2023-02-04T11:22:42;7.40;;;2.00;;
65405;SDS011;52016;51.228;-2.322;2023-02-04T11:26:35;9.03;;;4.43;;
65405;SDS011;52016;51.228;-2.322;2023-02-04T11:30:20;9.25;;;2.95;;
65405;SDS011;52016;51.228;-2.322;2023-02-04T11:37:53;5.65;;;2.28;;
65405;SDS011;52016;51.228;-2.322;2023-02-04T11:41:36;5.82;;;2.13;;
65405;SDS011;52016;51.228;-2.322;2023-02-04T11:45:36;6.82;;;2.22;;
65405;SDS011;52016;51.228;-2.322;2023-02-04T11:49:19;6.22;;;2.30;;
65405;SDS011;52016;51.228;-2.322;2023-02-04T11:53:01;9.40;;;2.22;;
65405;SDS011;52016;51.228;-2.322;2023-02-04T11:56:46;8.88;;;2.25;;
65405;SDS011;52016;51.228;-2.322;2023-02-04T12:00:32;5.35;;;1.90;;
65405;SDS011;52016;51.228;-2.322;2023-02-04T12:04:22;7.28;;;2.15;;
65405;SDS011;52016;51.228;-2.322;2023-02-04T12:08:09;12.68;;;2.47;;
65405;SDS011;52016;51.228;-2.322;2023-02-04T12:12:03;8.10;;;2.20;;
65405;SDS011;52016;51.228;-2.322;2023-02-04T12:15:51;7.80;;;2.13;;
65405;SDS011;52016;51.228;-2.322;2023-02-04T12:23:52;8.45;;;2.45;;
65405;SDS011;52016;51.228;-2.322;2023-02-04T12:27:38;5.90;;;2.15;;
65405;SDS011;52016;51.228;-2.322;2023-02-04T12:31:49;4.05;;;2.05;;
65405;SDS011;52016;51.228;-2.322;2023-02-04T12:35:34;5.00;;;1.80;;
65405;SDS011;52016;51.228;-2.322;2023-02-04T12:39:16;8.15;;;2.28;;
65405;SDS011;52016;51.228;-2.322;2023-02-04T12:42:58;9.10;;;2.92;;
65405;SDS011;52016;51.228;-2.322;2023-02-04T12:46:40;12.95;;;2.67;;
65405;SDS011;52016;51.228;-2.322;2023-02-04T12:50:22;7.22;;;2.20;;
65405;SDS011;52016;51.228;-2.322;2023-02-04T12:54:04;5.40;;;2.28;;
65405;SDS011;52016;51.228;-2.322;2023-02-04T12:57:46;10.30;;;2.50;;
65405;SDS011;52016;51.228;-2.322;2023-02-04T13:01:28;6.78;;;2.53;;
65405;SDS011;52016;51.228;-2.322;2023-02-04T13:05:10;9.48;;;2.65;;
65405;SDS011;52016;51.228;-2.322;2023-02-04T13:08:52;5.20;;;2.03;;
65405;SDS011;52016;51.228;-2.322;2023-02-04T13:12:34;7.15;;;2.35;;
65405;SDS011;52016;51.228;-2.322;2023-02-04T13:16:17;10.10;;;2.97;;
65405;SDS011;52016;51.228;-2.322;2023-02-04T13:19:59;8.05;;;2.90;;
65405;SDS011;52016;51.228;-2.322;2023-02-04T13:23:42;10.63;;;2.70;;
65405;SDS011;52016;51.228;-2.322;2023-02-04T13:27:24;6.82;;;2.67;;
65405;SDS011;52016;51.228;-2.322;2023-02-04T13:31:08;8.45;;;2.67;;
65405;SDS011;52016;51.228;-2.322;2023-02-04T13:34:50;6.35;;;2.40;;
65405;SDS011;52016;51.228;-2.322;2023-02-04T13:38:32;5.75;;;2.60;;
65405;SDS011;52016;51.228;-2.322;2023-02-04T13:42:14;6.65;;;2.28;;
65405;SDS011;52016;51.228;-2.322;2023-02-04T13:45:56;9.73;;;2.60;;
65405;SDS011;52016;51.228;-2.322;2023-02-04T13:49:39;6.68;;;2.50;;
65405;SDS011;52016;51.228;-2.322;2023-02-04T13:53:21;7.90;;;2.88;;
65405;SDS011;52016;51.228;-2.322;2023-02-04T13:57:03;8.63;;;2.83;;
65405;SDS011;52016;51.228;-2.322;2023-02-04T14:00:45;7.57;;;2.40;;
65405;SDS011;52016;51.228;-2.322;2023-02-04T14:04:28;8.00;;;2.78;;
65405;SDS011;52016;51.228;-2.322;2023-02-04T14:08:10;9.00;;;2.70;;
65405;SDS011;52016;51.228;-2.322;2023-02-04T14:11:52;5.15;;;2.47;;
65405;SDS011;52016;51.228;-2.322;2023-02-04T14:15:34;7.32;;;2.83;;
65405;SDS011;52016;51.228;-2.322;2023-02-04T14:19:22;8.00;;;2.78;;
65405;SDS011;52016;51.228;-2.322;2023-02-04T14:23:07;7.80;;;3.03;;
65405;SDS011;52016;51.228;-2.322;2023-02-04T14:26:52;9.73;;;3.40;;
65405;SDS011;52016;51.228;-2.322;2023-02-04T14:30:36;9.35;;;3.03;;
65405;SDS011;52016;51.228;-2.322;2023-02-04T14:34:18;7.65;;;2.95;;
65405;SDS011;52016;51.228;-2.322;2023-02-04T14:38:00;8.85;;;2.97;;
65405;SDS011;52016;51.228;-2.322;2023-02-04T14:41:42;9.07;;;2.78;;
65405;SDS011;52016;51.228;-2.322;2023-02-04T14:45:25;6.43;;;2.97;;
65405;SDS011;52016;51.228;-2.322;2023-02-04T14:49:07;8.52;;;2.60;;
65405;SDS011;52016;51.228;-2.322;2023-02-04T14:52:49;8.95;;;2.97;;
65405;SDS011;52016;51.228;-2.322;2023-02-04T14:56:31;11.88;;;3.42;;
65405;SDS011;52016;51.228;-2.322;2023-02-04T15:00:13;12.05;;;3.55;;
65405;SDS011;52016;51.228;-2.322;2023-02-04T15:03:56;12.02;;;4.00;;
65405;SDS011;52016;51.228;-2.322;2023-02-04T15:07:39;12.88;;;2.97;;
65405;SDS011;52016;51.228;-2.322;2023-02-04T15:11:21;7.80;;;3.28;;
65405;SDS011;52016;51.228;-2.322;2023-02-04T15:15:04;16.83;;;3.65;;
65405;SDS011;52016;51.228;-2.322;2023-02-04T15:18:47;12.55;;;4.10;;
65405;SDS011;52016;51.228;-2.322;2023-02-04T15:22:29;7.40;;;3.03;;
65405;SDS011;52016;51.228;-2.322;2023-02-04T15:26:12;11.20;;;4.20;;
65405;SDS011;52016;51.228;-2.322;2023-02-04T15:29:55;7.55;;;3.33;;
65405;SDS011;52016;51.228;-2.322;2023-02-04T15:33:38;6.80;;;2.97;;
65405;SDS011;52016;51.228;-2.322;2023-02-04T15:37:21;7.38;;;2.80;;
65405;SDS011;52016;51.228;-2.322;2023-02-04T15:41:03;9.50;;;3.50;;
65405;SDS011;52016;51.228;-2.322;2023-02-04T15:44:46;9.43;;;3.25;;
65405;SDS011;52016;51.228;-2.322;2023-02-04T15:48:28;12.25;;;3.78;;
65405;SDS011;52016;51.228;-2.322;2023-02-04T15:52:11;10.43;;;4.10;;
65405;SDS011;52016;51.228;-2.322;2023-02-04T15:56:05;10.18;;;3.45;;
65405;SDS011;52016;51.228;-2.322;2023-02-04T15:59:47;9.38;;;3.88;;
65405;SDS011;52016;51.228;-2.322;2023-02-04T16:03:30;11.20;;;3.97;;
65405;SDS011;52016;51.228;-2.322;2023-02-04T16:07:12;7.50;;;3.08;;
65405;SDS011;52016;51.228;-2.322;2023-02-04T16:10:54;8.88;;;3.80;;
65405;SDS011;52016;51.228;-2.322;2023-02-04T16:14:36;8.63;;;4.65;;
65405;SDS011;52016;51.228;-2.322;2023-02-04T16:18:19;13.65;;;4.63;;
65405;SDS011;52016;51.228;-2.322;2023-02-04T16:22:01;6.90;;;4.30;;
65405;SDS011;52016;51.228;-2.322;2023-02-04T16:25:44;9.75;;;4.78;;
65405;SDS011;52016;51.228;-2.322;2023-02-04T16:29:26;18.35;;;7.07;;
65405;SDS011;52016;51.228;-2.322;2023-02-04T16:33:09;15.88;;;4.88;;
65405;SDS011;52016;51.228;-2.322;2023-02-04T16:36:51;14.75;;;6.20;;
65405;SDS011;52016;51.228;-2.322;2023-02-04T16:40:33;11.73;;;5.57;;
65405;SDS011;52016;51.228;-2.322;2023-02-04T16:44:16;10.65;;;5.88;;
65405;SDS011;52016;51.228;-2.322;2023-02-04T16:47:58;14.45;;;6.50;;
65405;SDS011;52016;51.228;-2.322;2023-02-04T16:51:40;7.88;;;5.20;;
65405;SDS011;52016;51.228;-2.322;2023-02-04T16:55:23;12.82;;;5.05;;
65405;SDS011;52016;51.228;-2.322;2023-02-04T16:59:08;13.45;;;5.40;;
65405;SDS011;52016;51.228;-2.322;2023-02-04T17:02:50;13.45;;;4.72;;
65405;SDS011;52016;51.228;-2.322;2023-02-04T17:06:32;13.52;;;4.28;;
65405;SDS011;52016;51.228;-2.322;2023-02-04T17:10:16;10.13;;;4.28;;
65405;SDS011;52016;51.228;-2.322;2023-02-04T17:14:18;10.80;;;5.40;;
65405;SDS011;52016;51.228;-2.322;2023-02-04T17:18:03;14.00;;;6.28;;
65405;SDS011;52016;51.228;-2.322;2023-02-04T17:21:45;15.85;;;8.52;;
65405;SDS011;52016;51.228;-2.322;2023-02-04T17:25:28;29.55;;;14.10;;
65405;SDS011;52016;51.228;-2.322;2023-02-04T17:29:12;37.30;;;17.92;;
65405;SDS011;52016;51.228;-2.322;2023-02-04T17:32:57;35.55;;;14.32;;
65405;SDS011;52016;51.228;-2.322;2023-02-04T17:36:39;25.05;;;13.13;;
65405;SDS011;52016;51.228;-2.322;2023-02-04T17:40:21;16.15;;;9.05;;
65405;SDS011;52016;51.228;-2.322;2023-02-04T17:44:04;19.00;;;8.85;;
65405;SDS011;52016;51.228;-2.322;2023-02-04T17:47:46;21.08;;;10.40;;
65405;SDS011;52016;51.228;-2.322;2023-02-04T17:51:28;17.65;;;9.82;;
65405;SDS011;52016;51.228;-2.322;2023-02-04T17:55:22;17.83;;;10.00;;
65405;SDS011;52016;51.228;-2.322;2023-02-04T17:59:08;17.50;;;10.07;;
65405;SDS011;52016;51.228;-2.322;2023-02-04T18:02:51;21.92;;;10.82;;
65405;SDS011;52016;51.228;-2.322;2023-02-04T18:06:33;25.02;;;13.48;;
65405;SDS011;52016;51.228;-2.322;2023-02-04T18:10:20;26.55;;;16.65;;
65405;SDS011;52016;51.228;-2.322;2023-02-04T18:14:16;33.50;;;18.70;;
65405;SDS011;52016;51.228;-2.322;2023-02-04T18:18:14;21.50;;;11.85;;
65405;SDS011;52016;51.228;-2.322;2023-02-04T18:22:13;20.77;;;9.55;;
65405;SDS011;52016;51.228;-2.322;2023-02-04T18:26:05;17.48;;;10.13;;
65405;SDS011;52016;51.228;-2.322;2023-02-04T18:29:54;17.60;;;11.10;;
65405;SDS011;52016;51.228;-2.322;2023-02-04T18:33:36;14.13;;;7.97;;
65405;SDS011;52016;51.228;-2.322;2023-02-04T18:52:42;16.67;;;8.18;;
65405;SDS011;52016;51.228;-2.322;2023-02-04T18:56:24;22.45;;;10.25;;
65405;SDS011;52016;51.228;-2.322;2023-02-04T19:07:36;30.10;;;16.55;;
65405;SDS011;52016;51.228;-2.322;2023-02-04T19:11:37;26.08;;;13.57;;
65405;SDS011;52016;51.228;-2.322;2023-02-04T19:15:28;25.63;;;11.82;;
65405;SDS011;52016;51.228;-2.322;2023-02-04T19:19:24;23.27;;;11.35;;
65405;SDS011;52016;51.228;-2.322;2023-02-04T19:23:21;18.67;;;10.00;;
65405;SDS011;52016;51.228;-2.322;2023-02-04T19:31:00;14.88;;;8.05;;
65405;SDS011;52016;51.228;-2.322;2023-02-04T19:34:43;21.88;;;9.27;;
65405;SDS011;52016;51.228;-2.322;2023-02-04T19:38:43;18.45;;;11.50;;
65405;SDS011;52016;51.228;-2.322;2023-02-04T19:46:20;23.38;;;10.35;;
65405;SDS011;52016;51.228;-2.322;2023-02-04T19:54:15;18.77;;;10.40;;
65405;SDS011;52016;51.228;-2.322;2023-02-04T19:58:01;20.55;;;9.80;;
65405;SDS011;52016;51.228;-2.322;2023-02-04T20:05:44;25.05;;;12.82;;
65405;SDS011;52016;51.228;-2.322;2023-02-04T20:09:26;27.35;;;14.57;;
65405;SDS011;52016;51.228;-2.322;2023-02-04T20:13:11;24.58;;;14.20;;
65405;SDS011;52016;51.228;-2.322;2023-02-04T20:17:00;22.67;;;9.75;;
65405;SDS011;52016;51.228;-2.322;2023-02-04T20:20:50;16.15;;;9.43;;
65405;SDS011;52016;51.228;-2.322;2023-02-04T20:24:35;16.42;;;9.80;;
65405;SDS011;52016;51.228;-2.322;2023-02-04T20:28:28;20.45;;;9.32;;
65405;SDS011;52016;51.228;-2.322;2023-02-04T20:32:23;22.08;;;9.18;;
65405;SDS011;52016;51.228;-2.322;2023-02-04T20:48:39;17.20;;;10.43;;
65405;SDS011;52016;51.228;-2.322;2023-02-04T20:56:25;19.55;;;10.25;;
65405;SDS011;52016;51.228;-2.322;2023-02-04T21:00:28;22.00;;;10.35;;
65405;SDS011;52016;51.228;-2.322;2023-02-04T21:04:21;15.60;;;8.43;;
65405;SDS011;52016;51.228;-2.322;2023-02-04T21:12:01;11.00;;;6.95;;
65405;SDS011;52016;51.228;-2.322;2023-02-04T21:15:43;15.82;;;6.97;;
65405;SDS011;52016;51.228;-2.322;2023-02-04T21:19:26;11.90;;;5.90;;
65405;SDS011;52016;51.228;-2.322;2023-02-04T21:23:08;16.42;;;5.60;;
65405;SDS011;52016;51.228;-2.322;2023-02-04T21:26:50;20.95;;;7.10;;
65405;SDS011;52016;51.228;-2.322;2023-02-04T21:30:33;16.75;;;5.32;;
65405;SDS011;52016;51.228;-2.322;2023-02-04T21:34:15;13.70;;;4.82;;
65405;SDS011;52016;51.228;-2.322;2023-02-04T21:37:57;20.92;;;5.25;;
65405;SDS011;52016;51.228;-2.322;2023-02-04T21:41:40;21.42;;;5.53;;
65405;SDS011;52016;51.228;-2.322;2023-02-04T21:45:22;18.58;;;5.00;;
65405;SDS011;52016;51.228;-2.322;2023-02-04T21:49:05;27.95;;;7.97;;
65405;SDS011;52016;51.228;-2.322;2023-02-04T21:52:47;23.80;;;8.02;;
65405;SDS011;52016;51.228;-2.322;2023-02-04T21:56:30;24.58;;;7.60;;
65405;SDS011;52016;51.228;-2.322;2023-02-04T22:00:12;21.63;;;5.55;;
65405;SDS011;52016;51.228;-2.322;2023-02-04T22:03:54;16.88;;;6.00;;
65405;SDS011;52016;51.228;-2.322;2023-02-04T22:07:36;23.30;;;5.55;;
65405;SDS011;52016;51.228;-2.322;2023-02-04T22:11:20;21.58;;;4.72;;
65405;SDS011;52016;51.228;-2.322;2023-02-04T22:15:02;18.55;;;5.35;;
65405;SDS011;52016;51.228;-2.322;2023-02-04T22:18:44;14.65;;;4.80;;
65405;SDS011;52016;51.228;-2.322;2023-02-04T22:22:26;20.23;;;7.80;;
65405;SDS011;52016;51.228;-2.322;2023-02-04T22:26:08;21.27;;;8.70;;
65405;SDS011;52016;51.228;-2.322;2023-02-04T22:29:50;25.80;;;7.30;;
65405;SDS011;52016;51.228;-2.322;2023-02-04T22:33:32;18.70;;;4.80;;
65405;SDS011;52016;51.228;-2.322;2023-02-04T22:37:14;22.27;;;6.85;;
65405;SDS011;52016;51.228;-2.322;2023-02-04T22:40:56;24.83;;;10.38;;
65405;SDS011;52016;51.228;-2.322;2023-02-04T22:44:38;41.85;;;19.20;;
65405;SDS011;52016;51.228;-2.322;2023-02-04T22:48:20;30.65;;;13.68;;
65405;SDS011;52016;51.228;-2.322;2023-02-04T22:52:03;70.75;;;34.38;;
65405;SDS011;52016;51.228;-2.322;2023-02-04T22:55:45;44.70;;;22.52;;
65405;SDS011;52016;51.228;-2.322;2023-02-04T22:59:27;34.88;;;18.73;;
65405;SDS011;52016;51.228;-2.322;2023-02-04T23:03:09;20.85;;;10.57;;
65405;SDS011;52016;51.228;-2.322;2023-02-04T23:06:51;18.38;;;6.95;;
65405;SDS011;52016;51.228;-2.322;2023-02-04T23:10:33;15.35;;;7.60;;
65405;SDS011;52016;51.228;-2.322;2023-02-04T23:14:18;25.10;;;8.07;;
65405;SDS011;52016;51.228;-2.322;2023-02-04T23:18:00;25.92;;;8.18;;
65405;SDS011;52016;51.228;-2.322;2023-02-04T23:21:42;31.63;;;14.30;;
65405;SDS011;52016;51.228;-2.322;2023-02-04T23:25:24;24.02;;;10.20;;
65405;SDS011;52016;51.228;-2.322;2023-02-04T23:29:06;19.42;;;7.47;;